createdAt,value
2022-11-05T00:00:38.322Z,1013.5
2022-11-05T00:04:42.255Z,1013.48
2022-11-05T00:08:35.324Z,1013.59
2022-11-05T00:12:35.367Z,1013.59
2022-11-05T00:16:35.487Z,1013.57
2022-11-05T00:20:35.816Z,1013.63
2022-11-05T00:24:35.763Z,1013.79
2022-11-05T00:28:35.000Z,1013.72
2022-11-05T00:32:35.819Z,1013.84
2022-11-05T00:36:35.164Z,1013.95
2022-11-05T00:40:35.990Z,1013.99
2022-11-05T00:44:35.920Z,1014.11
2022-11-05T00:48:36.007Z,1013.98
2022-11-05T00:52:35.528Z,1014.06
2022-11-05T00:56:35.586Z,1013.98
2022-11-05T01:00:38.345Z,1014.04
2022-11-05T01:04:35.001Z,1014.13
2022-11-05T01:08:35.331Z,1014.11
2022-11-05T01:12:35.426Z,1014.01
2022-11-05T01:16:35.844Z,1014.09
2022-11-05T01:20:35.402Z,1014.07
2022-11-05T01:24:35.327Z,1013.98
2022-11-05T01:28:35.416Z,1014.02
2022-11-05T01:32:35.221Z,1014
2022-11-05T01:36:35.347Z,1013.93
2022-11-05T01:40:35.307Z,1013.96
2022-11-05T01:44:35.494Z,1013.95
2022-11-05T01:48:35.193Z,1014.08
2022-11-05T01:52:35.269Z,1014.01
2022-11-05T01:56:35.786Z,1014.04
2022-11-05T02:00:37.882Z,1014.08
2022-11-05T02:04:35.738Z,1014.14
2022-11-05T02:08:35.561Z,1014.06
2022-11-05T02:12:35.558Z,1014.19
2022-11-05T02:16:35.076Z,1014.27
2022-11-05T02:20:36.029Z,1014.33
2022-11-05T02:24:35.847Z,1014.24
2022-11-05T02:28:35.222Z,1014.31
2022-11-05T02:32:35.345Z,1014.27
2022-11-05T02:36:35.868Z,1014.37
2022-11-05T02:40:36.177Z,1014.22
2022-11-05T02:44:35.546Z,1014.13
2022-11-05T02:48:36.023Z,1014
2022-11-05T02:52:35.611Z,1013.99
2022-11-05T02:56:35.787Z,1014.05
2022-11-05T03:00:39.583Z,1014.01
2022-11-05T03:04:35.595Z,1013.92
2022-11-05T03:08:35.703Z,1013.99
2022-11-05T03:12:35.346Z,1013.99
2022-11-05T03:16:35.132Z,1014
2022-11-05T03:20:35.513Z,1013.96
2022-11-05T03:24:35.707Z,1013.96
2022-11-05T03:28:35.811Z,1013.97
2022-11-05T03:32:35.790Z,1014.07
2022-11-05T03:36:35.556Z,1013.99
2022-11-05T03:40:35.172Z,1014.18
2022-11-05T03:44:35.692Z,1014.12
2022-11-05T03:48:35.955Z,1013.97
2022-11-05T03:52:35.206Z,1014.11
2022-11-05T03:56:35.140Z,1014.02
2022-11-05T04:00:38.170Z,1014.08
2022-11-05T04:04:35.686Z,1014.09
2022-11-05T04:08:37.247Z,1014.2
2022-11-05T04:12:35.416Z,1014.09
2022-11-05T04:16:35.574Z,1014.07
2022-11-05T04:20:35.227Z,1014.13
2022-11-05T04:24:35.447Z,1014.15
2022-11-05T04:28:35.952Z,1014.26
2022-11-05T04:32:35.730Z,1014.15
2022-11-05T04:36:35.889Z,1014.16
2022-11-05T04:40:35.682Z,1014.3
2022-11-05T04:44:35.560Z,1014.14
2022-11-05T04:48:35.881Z,1014.2
2022-11-05T04:52:35.880Z,1014.35
2022-11-05T04:56:36.298Z,1014.35
2022-11-05T05:00:38.659Z,1014.4
2022-11-05T05:04:35.910Z,1014.37
2022-11-05T05:08:35.075Z,1014.37
2022-11-05T05:12:35.124Z,1014.39
2022-11-05T05:16:35.052Z,1014.32
2022-11-05T05:20:35.638Z,1014.33
2022-11-05T05:24:35.442Z,1014.36
2022-11-05T05:28:35.727Z,1014.24
2022-11-05T05:32:35.966Z,1014.35
2022-11-05T05:36:42.287Z,1014.37
2022-11-05T05:40:35.117Z,1014.37
2022-11-05T05:44:35.476Z,1014.31
2022-11-05T05:48:35.077Z,1014.33
2022-11-05T05:52:35.292Z,1014.43
2022-11-05T05:56:35.855Z,1014.48
2022-11-05T06:00:38.515Z,1014.42
2022-11-05T06:04:35.095Z,1014.42
2022-11-05T06:08:35.331Z,1014.45
2022-11-05T06:12:35.743Z,1014.44
2022-11-05T06:16:36.202Z,1014.52
2022-11-05T06:20:35.281Z,1014.43
2022-11-05T06:24:35.801Z,1014.46
2022-11-05T06:28:35.412Z,1014.62
2022-11-05T06:32:35.892Z,1014.65
2022-11-05T06:36:35.936Z,1014.63
2022-11-05T06:40:35.525Z,1014.55
2022-11-05T06:44:35.251Z,1014.56
2022-11-05T06:48:35.566Z,1014.81
2022-11-05T06:52:40.757Z,1014.73
2022-11-05T06:56:35.739Z,1014.7
2022-11-05T07:00:42.414Z,1014.69
2022-11-05T07:04:35.015Z,1014.78
2022-11-05T07:08:34.973Z,1014.87
2022-11-05T07:12:35.292Z,1014.92
2022-11-05T07:16:35.998Z,1014.83
2022-11-05T07:20:42.104Z,1014.89
2022-11-05T07:24:35.656Z,1014.89
2022-11-05T07:28:35.364Z,1014.95
2022-11-05T07:32:35.983Z,1014.83
2022-11-05T07:36:35.112Z,1014.86
2022-11-05T07:40:35.350Z,1014.86
2022-11-05T07:44:35.046Z,1014.85
2022-11-05T07:48:35.104Z,1014.92
2022-11-05T07:52:35.104Z,1014.89
2022-11-05T07:56:35.562Z,1014.74
2022-11-05T08:00:37.717Z,1014.77
2022-11-05T08:04:35.548Z,1014.77
2022-11-05T08:08:35.579Z,1014.84
2022-11-05T08:12:37.298Z,1014.76
2022-11-05T08:16:35.379Z,1014.92
2022-11-05T08:20:35.541Z,1015
2022-11-05T08:24:35.332Z,1014.91
2022-11-05T08:28:35.624Z,1014.95
2022-11-05T08:32:35.358Z,1014.87
2022-11-05T08:36:35.123Z,1014.84
2022-11-05T08:40:35.990Z,1014.89
2022-11-05T08:44:35.905Z,1014.93
2022-11-05T08:48:35.363Z,1014.95
2022-11-05T08:52:35.147Z,1014.99
2022-11-05T08:56:35.474Z,1015.03
2022-11-05T09:00:38.863Z,1015.07
2022-11-05T09:04:35.629Z,1015
2022-11-05T09:08:35.988Z,1015.03
2022-11-05T09:12:46.890Z,1015.05
2022-11-05T09:16:35.645Z,1015.09
2022-11-05T09:20:35.344Z,1015.25
2022-11-05T09:24:35.715Z,1015.11
2022-11-05T09:28:39.745Z,1015.12
2022-11-05T09:32:35.923Z,1015.1
2022-11-05T09:36:35.678Z,1015.02
2022-11-05T09:40:35.700Z,1015.14
2022-11-05T09:44:35.213Z,1015.07
2022-11-05T09:48:35.913Z,1015.14
2022-11-05T09:52:35.406Z,1015.11
2022-11-05T09:56:35.080Z,1015.07
2022-11-05T10:00:37.829Z,1015.06
2022-11-05T10:04:35.884Z,1014.99
2022-11-05T10:08:35.097Z,1015.02
2022-11-05T10:12:35.193Z,1015
2022-11-05T10:16:35.694Z,1014.99
2022-11-05T10:20:35.295Z,1014.98
2022-11-05T10:24:36.006Z,1015.14
2022-11-05T10:28:36.269Z,1015.03
2022-11-05T10:32:35.455Z,1015.1
2022-11-05T10:36:35.146Z,1015.05
2022-11-05T10:40:35.649Z,1014.98
2022-11-05T10:44:41.419Z,1014.97
2022-11-05T10:48:39.327Z,1014.96
2022-11-05T10:52:35.141Z,1014.96
2022-11-05T10:56:35.789Z,1014.96
2022-11-05T11:00:38.231Z,1015.07
2022-11-05T11:04:38.071Z,1015.06
2022-11-05T11:08:35.919Z,1015.12
2022-11-05T11:12:40.573Z,1015.18
2022-11-05T11:16:35.185Z,1015.19
2022-11-05T11:20:35.833Z,1015.19
2022-11-05T11:24:35.484Z,1015.04
2022-11-05T11:28:35.956Z,1015.1
2022-11-05T11:32:35.212Z,1015.05
2022-11-05T11:36:35.720Z,1015.02
2022-11-05T11:40:35.253Z,1015.09
2022-11-05T11:44:35.665Z,1014.98
2022-11-05T11:48:35.181Z,1014.97
2022-11-05T11:52:35.721Z,1015
2022-11-05T11:56:35.729Z,1014.94
2022-11-05T12:00:43.734Z,1015.04
2022-11-05T12:04:35.284Z,1014.99
2022-11-05T12:08:35.351Z,1014.95
2022-11-05T12:12:35.052Z,1014.87
2022-11-05T12:16:35.758Z,1014.79
2022-11-05T12:20:35.549Z,1014.86
2022-11-05T12:24:35.351Z,1014.72
2022-11-05T12:28:36.195Z,1014.75
2022-11-05T12:32:35.936Z,1014.75
2022-11-05T12:36:35.390Z,1014.72
2022-11-05T12:40:35.235Z,1014.65
2022-11-05T12:44:35.207Z,1014.58
2022-11-05T12:48:42.837Z,1014.56
2022-11-05T12:52:35.677Z,1014.54
2022-11-05T12:56:35.178Z,1014.31
2022-11-05T13:00:38.270Z,1014.45
2022-11-05T13:04:35.503Z,1014.27
2022-11-05T13:08:35.637Z,1014.31
2022-11-05T13:12:35.403Z,1014.32
2022-11-05T13:16:35.660Z,1014.24
2022-11-05T13:20:40.170Z,1014.13
2022-11-05T13:24:35.701Z,1014.17
2022-11-05T13:28:35.112Z,1014.16
2022-11-05T13:32:35.975Z,1014.2
2022-11-05T13:36:35.273Z,1014.25
2022-11-05T13:40:35.265Z,1014.22
2022-11-05T13:44:35.906Z,1014.23
2022-11-05T13:48:35.453Z,1014.15
2022-11-05T13:52:35.980Z,1014.17
2022-11-05T13:56:35.587Z,1014.16
2022-11-05T14:00:38.049Z,1014.1
2022-11-05T14:04:35.963Z,1014.23
2022-11-05T14:08:35.575Z,1014.07
2022-11-05T14:12:35.696Z,1014.09
2022-11-05T14:16:35.278Z,1014.22
2022-11-05T14:20:35.930Z,1014.05
2022-11-05T14:24:35.488Z,1014.09
2022-11-05T14:28:35.866Z,1014.1
2022-11-05T14:32:43.413Z,1014.18
2022-11-05T14:36:35.409Z,1014.18
2022-11-05T14:40:36.050Z,1014.02
2022-11-05T14:44:35.390Z,1013.95
2022-11-05T14:48:35.017Z,1013.95
2022-11-05T14:52:35.455Z,1013.88
2022-11-05T14:56:35.109Z,1014.02
2022-11-05T15:00:41.205Z,1014.03
2022-11-05T15:04:35.926Z,1014.05
2022-11-05T15:08:35.490Z,1013.96
2022-11-05T15:12:35.626Z,1013.93
2022-11-05T15:16:35.657Z,1013.9
2022-11-05T15:20:39.789Z,1013.94
2022-11-05T15:24:35.883Z,1013.93
2022-11-05T15:28:35.414Z,1013.89
2022-11-05T15:32:38.431Z,1013.88
2022-11-05T15:36:35.583Z,1013.91
2022-11-05T15:40:35.731Z,1013.84
2022-11-05T15:44:35.946Z,1013.82
2022-11-05T15:48:35.479Z,1013.82
2022-11-05T15:52:35.336Z,1013.75
2022-11-05T15:56:35.756Z,1013.8
2022-11-05T16:00:38.821Z,1013.72
2022-11-05T16:04:43.298Z,1013.72
2022-11-05T16:08:35.175Z,1013.72
2022-11-05T16:12:35.522Z,1013.7
2022-11-05T16:16:35.383Z,1013.65
2022-11-05T16:20:35.627Z,1013.63
2022-11-05T16:24:40.656Z,1013.61
2022-11-05T16:28:35.767Z,1013.48
2022-11-05T16:32:41.742Z,1013.53
2022-11-05T16:36:35.641Z,1013.44
2022-11-05T16:40:35.568Z,1013.38
2022-11-05T16:44:35.124Z,1013.37
2022-11-05T16:48:35.503Z,1013.36
2022-11-05T16:52:35.225Z,1013.36
2022-11-05T16:56:35.035Z,1013.36
2022-11-05T17:00:38.145Z,1013.38
2022-11-05T17:04:35.104Z,1013.38
2022-11-05T17:08:36.633Z,1013.51
2022-11-05T17:12:35.978Z,1013.45
2022-11-05T17:16:35.466Z,1013.47
2022-11-05T17:20:40.216Z,1013.47
2022-11-05T17:24:35.968Z,1013.63
2022-11-05T17:28:35.753Z,1013.59
2022-11-05T17:32:36.141Z,1013.65
2022-11-05T17:36:35.502Z,1013.63
2022-11-05T17:40:35.716Z,1013.6
2022-11-05T17:44:35.425Z,1013.68
2022-11-05T17:48:35.312Z,1013.64
2022-11-05T17:52:35.575Z,1013.55
2022-11-05T17:56:45.058Z,1013.66
2022-11-05T18:00:40.580Z,1013.59
2022-11-05T18:04:42.923Z,1013.38
2022-11-05T18:08:35.795Z,1013.42
2022-11-05T18:12:35.537Z,1013.31
2022-11-05T18:16:35.275Z,1013.21
2022-11-05T18:20:41.695Z,1013.19
2022-11-05T18:24:35.729Z,1013.32
2022-11-05T18:28:36.331Z,1013.17
2022-11-05T18:32:35.580Z,1013.1
2022-11-05T18:36:35.356Z,1013.04
2022-11-05T18:40:35.962Z,1012.89
2022-11-05T18:44:39.155Z,1012.84
2022-11-05T18:48:36.247Z,1012.88
2022-11-05T18:52:35.596Z,1012.82
2022-11-05T18:56:35.730Z,1012.95
2022-11-05T19:00:38.037Z,1012.99
2022-11-05T19:04:35.581Z,1012.92
2022-11-05T19:08:36.318Z,1012.85
2022-11-05T19:12:35.833Z,1012.81
2022-11-05T19:16:35.252Z,1012.63
2022-11-05T19:20:37.828Z,1012.48
2022-11-05T19:24:39.644Z,1012.48
2022-11-05T19:28:35.759Z,1012.45
2022-11-05T19:32:35.002Z,1012.33
2022-11-05T19:36:35.341Z,1012.54
2022-11-05T19:40:35.604Z,1012.42
2022-11-05T19:44:35.081Z,1012.5
2022-11-05T19:48:42.045Z,1012.36
2022-11-05T19:52:35.364Z,1012.38
2022-11-05T19:56:36.024Z,1012.38
2022-11-05T20:00:42.133Z,1012.38
2022-11-05T20:04:35.792Z,1012.29
2022-11-05T20:08:47.894Z,1012.28
2022-11-05T20:12:35.567Z,1012.22
2022-11-05T20:16:35.587Z,1012.24
2022-11-05T20:20:35.855Z,1012.28
2022-11-05T20:24:36.990Z,1012.23
2022-11-05T20:28:36.179Z,1012.37
2022-11-05T20:32:35.008Z,1012.3
2022-11-05T20:36:35.370Z,1012.34
2022-11-05T20:40:35.561Z,1012.37
2022-11-05T20:44:35.165Z,1012.34
2022-11-05T20:48:36.428Z,1012.34
2022-11-05T20:52:35.017Z,1012.27
2022-11-05T20:56:41.623Z,1012.31
2022-11-05T21:00:38.213Z,1012.33
2022-11-05T21:04:35.107Z,1012.36
2022-11-05T21:08:35.495Z,1012.34
2022-11-05T21:12:35.472Z,1012.27
2022-11-05T21:16:40.875Z,1012.22
2022-11-05T21:20:35.224Z,1012.33
2022-11-05T21:24:35.852Z,1012.31
2022-11-05T21:28:35.858Z,1012.09
2022-11-05T21:32:35.347Z,1012.05
2022-11-05T21:36:35.601Z,1011.93
2022-11-05T21:40:35.694Z,1012.03
2022-11-05T21:44:35.282Z,1012.11
2022-11-05T21:48:36.325Z,1012.15
2022-11-05T21:52:35.179Z,1012.28
2022-11-05T21:56:35.176Z,1012.19
2022-11-05T22:00:38.447Z,1012.14
2022-11-05T22:04:37.224Z,1011.97
2022-11-05T22:08:36.105Z,1012.04
2022-11-05T22:12:35.354Z,1012.11
2022-11-05T22:16:35.395Z,1012.05
2022-11-05T22:20:35.624Z,1011.82
2022-11-05T22:24:35.130Z,1011.92
2022-11-05T22:28:35.891Z,1011.74
2022-11-05T22:32:35.603Z,1011.82
2022-11-05T22:36:35.699Z,1011.77
2022-11-05T22:40:35.956Z,1011.55
2022-11-05T22:44:35.690Z,1011.63
2022-11-05T22:48:40.683Z,1011.58
2022-11-05T22:52:35.868Z,1011.7
2022-11-05T22:56:35.882Z,1011.51
2022-11-05T23:00:42.536Z,1011.53
2022-11-05T23:04:35.943Z,1011.61
2022-11-05T23:08:35.825Z,1011.48
2022-11-05T23:12:35.172Z,1011.76
2022-11-05T23:16:35.120Z,1011.42
2022-11-05T23:20:35.408Z,1011.48
2022-11-05T23:24:35.672Z,1011.56
2022-11-05T23:28:36.261Z,1011.46
2022-11-05T23:32:35.671Z,1011.28
2022-11-05T23:36:35.764Z,1011.35
2022-11-05T23:40:35.432Z,1011.31
2022-11-05T23:44:35.228Z,1011.28
2022-11-05T23:48:36.429Z,1011.37
2022-11-05T23:52:35.491Z,1011.37
2022-11-05T23:56:35.123Z,1011.43
